createdAt,value
2022-12-31T00:02:05.684Z,4.97
2022-12-31T00:05:14.794Z,2.17
2022-12-31T00:08:23.381Z,5.50
2022-12-31T00:11:32.357Z,6.23
2022-12-31T00:14:42.158Z,6.60
2022-12-31T00:17:50.500Z,8.83
2022-12-31T00:20:58.839Z,5.73
2022-12-31T00:24:08.473Z,6.87
2022-12-31T00:27:16.817Z,8.63
2022-12-31T00:30:26.573Z,6.83
2022-12-31T00:33:34.989Z,3.97
2022-12-31T00:36:43.583Z,3.50
2022-12-31T00:39:51.984Z,2.77
2022-12-31T00:43:00.446Z,4.90
2022-12-31T00:46:13.864Z,2.07
2022-12-31T00:49:22.254Z,3.27
2022-12-31T00:52:30.628Z,2.63
2022-12-31T00:55:39.053Z,2.70
2022-12-31T00:58:47.884Z,3.00
2022-12-31T01:01:57.775Z,1.50
2022-12-31T01:05:08.253Z,2.67
2022-12-31T01:08:16.683Z,1.10
2022-12-31T01:11:29.214Z,4.50
2022-12-31T01:14:37.804Z,2.13
2022-12-31T01:17:47.542Z,1.73
2022-12-31T01:20:56.022Z,3.80
2022-12-31T01:24:05.059Z,4.20
2022-12-31T01:27:13.409Z,2.20
2022-12-31T01:30:21.963Z,3.80
2022-12-31T01:33:31.758Z,4.97
2022-12-31T01:36:40.252Z,3.90
2022-12-31T01:39:51.511Z,3.23
2022-12-31T01:43:00.139Z,4.87
2022-12-31T01:46:10.795Z,1.70
2022-12-31T01:49:23.829Z,8.83
2022-12-31T01:52:35.802Z,5.40
2022-12-31T01:55:49.529Z,3.63
2022-12-31T01:58:58.674Z,3.63
2022-12-31T02:02:07.454Z,3.17
2022-12-31T02:05:24.449Z,4.70
2022-12-31T02:08:35.767Z,4.00
2022-12-31T02:11:48.419Z,2.60
2022-12-31T02:14:57.639Z,4.00
2022-12-31T02:18:13.072Z,5.03
2022-12-31T02:21:50.665Z,3.33
2022-12-31T02:25:29.824Z,7.90
2022-12-31T02:28:56.323Z,4.27
2022-12-31T02:32:12.560Z,3.67
2022-12-31T02:35:25.760Z,4.80
2022-12-31T02:38:36.879Z,6.00
2022-12-31T02:41:52.052Z,6.03
2022-12-31T02:45:00.532Z,5.83
2022-12-31T02:48:28.277Z,7.70
2022-12-31T02:51:44.260Z,5.73
2022-12-31T02:55:03.049Z,10.40
2022-12-31T02:58:17.890Z,6.13
2022-12-31T03:01:48.335Z,5.00
2022-12-31T03:04:59.029Z,4.10
2022-12-31T03:08:07.511Z,6.50
2022-12-31T03:11:35.938Z,9.40
2022-12-31T03:14:43.459Z,5.73
2022-12-31T03:18:00.869Z,9.53
2022-12-31T03:21:32.335Z,12.63
2022-12-31T03:24:58.100Z,5.27
2022-12-31T03:28:08.447Z,10.17
2022-12-31T03:31:17.169Z,14.17
2022-12-31T03:34:25.550Z,10.83
2022-12-31T03:37:35.397Z,7.97
2022-12-31T03:40:45.306Z,10.63
2022-12-31T03:43:53.746Z,8.70
2022-12-31T03:47:02.178Z,7.37
2022-12-31T03:50:11.975Z,11.07
2022-12-31T03:53:22.059Z,8.43
2022-12-31T03:56:30.426Z,9.07
2022-12-31T03:59:38.865Z,8.50
2022-12-31T04:02:47.453Z,14.07
2022-12-31T04:05:56.572Z,6.37
2022-12-31T04:09:06.391Z,7.53
2022-12-31T04:12:14.744Z,12.97
2022-12-31T04:15:23.289Z,10.33
2022-12-31T04:18:31.690Z,8.60
2022-12-31T04:21:40.308Z,10.37
2022-12-31T04:24:50.104Z,9.60
2022-12-31T04:27:58.437Z,9.60
2022-12-31T04:31:06.919Z,12.90
2022-12-31T04:34:15.309Z,9.87
2022-12-31T04:37:23.774Z,9.83
2022-12-31T04:40:33.573Z,9.30
2022-12-31T04:43:42.245Z,9.07
2022-12-31T04:46:50.723Z,6.83
2022-12-31T04:49:59.069Z,6.27
2022-12-31T04:53:07.465Z,9.33
2022-12-31T04:56:18.144Z,7.17
2022-12-31T04:59:26.696Z,12.33
2022-12-31T05:02:35.260Z,6.10
2022-12-31T05:05:44.000Z,11.67
2022-12-31T05:08:52.337Z,8.93
2022-12-31T05:12:02.097Z,7.87
2022-12-31T05:15:10.894Z,12.03
2022-12-31T05:18:20.090Z,8.40
2022-12-31T05:21:28.447Z,6.90
2022-12-31T05:24:36.985Z,9.40
2022-12-31T05:27:46.807Z,8.87
2022-12-31T05:30:55.268Z,9.10
2022-12-31T05:34:03.664Z,8.30
2022-12-31T05:37:12.621Z,12.47
2022-12-31T05:40:21.114Z,13.00
2022-12-31T05:43:31.300Z,9.00
2022-12-31T05:46:39.635Z,10.03
2022-12-31T05:49:48.013Z,11.90
2022-12-31T05:52:56.385Z,9.00
2022-12-31T05:56:04.854Z,11.70
2022-12-31T05:59:14.825Z,8.30
2022-12-31T06:02:24.017Z,8.93
2022-12-31T06:05:32.431Z,15.47
2022-12-31T06:08:40.834Z,9.23
2022-12-31T06:11:49.459Z,7.80
2022-12-31T06:14:59.262Z,9.70
2022-12-31T06:18:08.032Z,11.07
2022-12-31T06:21:16.947Z,10.30
2022-12-31T06:24:25.438Z,7.23
2022-12-31T06:27:33.768Z,11.73
2022-12-31T06:30:43.523Z,9.57
2022-12-31T06:33:51.910Z,8.80
2022-12-31T06:37:00.777Z,10.37
2022-12-31T06:40:10.355Z,12.33
2022-12-31T06:43:18.790Z,10.00
2022-12-31T06:46:28.651Z,11.97
2022-12-31T06:49:37.112Z,12.47
2022-12-31T06:52:45.456Z,11.77
2022-12-31T06:55:54.292Z,7.40
2022-12-31T06:59:03.618Z,9.67
2022-12-31T07:02:28.538Z,8.30
2022-12-31T07:05:45.642Z,14.60
2022-12-31T07:09:02.722Z,9.40
2022-12-31T07:12:21.672Z,11.70
2022-12-31T07:15:46.692Z,12.13
2022-12-31T07:19:05.396Z,8.10
2022-12-31T07:22:16.081Z,10.73
2022-12-31T07:25:25.387Z,6.73
2022-12-31T07:28:46.841Z,5.67
2022-12-31T07:32:05.703Z,7.20
2022-12-31T07:35:23.393Z,7.23
2022-12-31T07:38:38.966Z,8.03
2022-12-31T07:41:59.988Z,15.57
2022-12-31T07:45:19.052Z,14.73
2022-12-31T07:48:29.645Z,13.73
2022-12-31T07:51:40.231Z,11.77
2022-12-31T07:54:48.871Z,17.83
2022-12-31T07:58:04.487Z,13.93
2022-12-31T08:01:15.871Z,13.13
2022-12-31T08:04:30.213Z,10.83
2022-12-31T08:07:48.031Z,13.63
2022-12-31T08:11:07.694Z,12.23
2022-12-31T08:14:17.018Z,15.00
2022-12-31T08:17:25.793Z,9.23
2022-12-31T08:20:37.459Z,7.83
2022-12-31T08:23:53.890Z,13.50
2022-12-31T08:27:09.308Z,10.07
2022-12-31T08:30:19.278Z,15.27
2022-12-31T08:33:32.644Z,12.33
2022-12-31T08:36:50.071Z,9.77
2022-12-31T08:40:14.123Z,9.20
2022-12-31T08:43:47.155Z,10.97
2022-12-31T08:47:07.111Z,10.60
2022-12-31T08:50:17.375Z,9.67
2022-12-31T08:53:26.342Z,8.50
2022-12-31T08:56:44.806Z,10.57
2022-12-31T09:00:07.095Z,12.17
2022-12-31T09:03:42.239Z,10.97
2022-12-31T09:06:56.075Z,5.47
2022-12-31T09:10:16.102Z,9.33
2022-12-31T09:13:35.224Z,9.73
2022-12-31T09:16:53.132Z,10.87
2022-12-31T09:20:02.140Z,11.53
2022-12-31T09:23:11.329Z,9.37
2022-12-31T09:26:41.680Z,10.90
2022-12-31T09:29:57.154Z,9.43
2022-12-31T09:33:11.417Z,9.97
2022-12-31T09:36:28.542Z,10.57
2022-12-31T09:39:42.239Z,9.27
2022-12-31T09:43:20.691Z,11.30
2022-12-31T09:47:20.746Z,14.73
2022-12-31T09:50:57.693Z,12.37
2022-12-31T09:54:21.164Z,12.07
2022-12-31T09:57:39.956Z,16.13
2022-12-31T10:00:54.430Z,9.53
2022-12-31T10:04:36.148Z,11.73
2022-12-31T10:07:53.679Z,10.60
2022-12-31T10:11:11.830Z,14.97
2022-12-31T10:14:46.974Z,10.13
2022-12-31T10:18:06.630Z,11.03
2022-12-31T10:21:43.568Z,10.33
2022-12-31T10:25:20.411Z,12.20
2022-12-31T10:28:55.458Z,9.30
2022-12-31T10:32:17.274Z,9.63
2022-12-31T10:35:32.618Z,10.10
2022-12-31T10:39:02.464Z,11.00
2022-12-31T10:42:45.698Z,13.63
2022-12-31T10:46:25.764Z,13.17
2022-12-31T10:50:02.418Z,9.87
2022-12-31T10:53:36.304Z,8.77
2022-12-31T10:57:24.060Z,12.80
2022-12-31T11:00:37.279Z,11.60
2022-12-31T11:04:24.576Z,12.17
2022-12-31T11:07:56.991Z,8.87
2022-12-31T11:11:20.153Z,16.60
2022-12-31T11:15:13.179Z,9.60
2022-12-31T11:18:31.236Z,14.10
2022-12-31T11:21:58.544Z,11.87
2022-12-31T11:25:24.185Z,14.20
2022-12-31T11:28:51.679Z,13.80
2022-12-31T11:32:19.303Z,11.30
2022-12-31T11:35:38.446Z,6.93
2022-12-31T11:38:53.572Z,13.90
2022-12-31T11:42:08.892Z,11.17
2022-12-31T11:45:30.199Z,13.03
2022-12-31T11:48:48.785Z,10.90
2022-12-31T11:52:25.795Z,10.47
2022-12-31T11:55:48.394Z,13.03
2022-12-31T11:58:57.578Z,8.23
2022-12-31T12:02:24.390Z,8.23
2022-12-31T12:05:36.188Z,10.83
2022-12-31T12:08:46.233Z,9.77
2022-12-31T12:11:59.967Z,8.53
2022-12-31T12:15:11.740Z,10.97
2022-12-31T12:18:28.635Z,9.50
2022-12-31T12:21:48.876Z,10.37
2022-12-31T12:24:59.490Z,5.93
2022-12-31T12:28:26.122Z,11.37
2022-12-31T12:31:42.311Z,11.97
2022-12-31T12:34:53.865Z,6.87
2022-12-31T12:38:06.381Z,9.20
2022-12-31T12:41:21.709Z,10.07
2022-12-31T12:44:30.658Z,8.77
2022-12-31T12:47:39.120Z,8.77
2022-12-31T12:50:49.853Z,11.30
2022-12-31T12:54:07.613Z,9.67
2022-12-31T12:57:21.619Z,8.83
2022-12-31T13:00:34.659Z,11.37
2022-12-31T13:04:39.184Z,11.87
2022-12-31T13:07:59.381Z,9.90
2022-12-31T13:11:21.783Z,9.80
2022-12-31T13:14:36.682Z,9.20
2022-12-31T13:18:01.710Z,13.97
2022-12-31T13:21:27.563Z,8.20
2022-12-31T13:24:49.649Z,13.80
2022-12-31T13:28:04.805Z,7.67
2022-12-31T13:31:18.697Z,12.77
2022-12-31T13:34:31.338Z,10.07
2022-12-31T13:37:43.434Z,8.67
2022-12-31T13:40:59.277Z,10.60
2022-12-31T13:44:16.213Z,4.67
2022-12-31T13:47:33.064Z,9.23
2022-12-31T13:50:46.651Z,9.47
2022-12-31T13:54:01.062Z,9.30
2022-12-31T13:57:18.902Z,6.37
2022-12-31T14:00:35.304Z,5.70
2022-12-31T14:03:52.069Z,11.57
2022-12-31T14:07:06.643Z,7.60
2022-12-31T14:10:15.619Z,5.87
2022-12-31T14:13:45.488Z,7.40
2022-12-31T14:17:00.555Z,9.67
2022-12-31T14:20:18.961Z,4.50
2022-12-31T14:23:38.386Z,10.43
2022-12-31T14:26:51.376Z,8.80
2022-12-31T14:30:02.887Z,5.20
2022-12-31T14:33:32.348Z,5.93
2022-12-31T14:36:51.043Z,7.53
2022-12-31T14:40:07.945Z,8.10
2022-12-31T14:43:24.894Z,12.10
2022-12-31T14:46:44.419Z,7.67
2022-12-31T14:50:05.973Z,7.40
2022-12-31T14:53:22.736Z,8.77
2022-12-31T14:56:38.208Z,11.07
2022-12-31T14:59:56.208Z,5.53
2022-12-31T15:03:06.772Z,4.53
2022-12-31T15:06:39.568Z,9.03
2022-12-31T15:10:08.259Z,9.77
2022-12-31T15:13:29.058Z,5.50
2022-12-31T15:16:50.514Z,7.53
2022-12-31T15:20:42.469Z,4.47
2022-12-31T15:23:52.392Z,3.60
2022-12-31T15:27:03.610Z,6.23
2022-12-31T15:30:33.439Z,5.80
2022-12-31T15:33:53.861Z,6.70
2022-12-31T15:37:04.728Z,4.60
2022-12-31T15:40:25.018Z,5.07
2022-12-31T15:43:41.675Z,4.53
2022-12-31T15:46:56.189Z,4.10
2022-12-31T15:50:07.587Z,2.90
2022-12-31T15:53:28.381Z,9.00
2022-12-31T15:56:45.460Z,3.27
2022-12-31T15:59:59.370Z,3.83
2022-12-31T16:03:22.647Z,6.83
2022-12-31T16:06:33.087Z,5.20
2022-12-31T16:09:41.694Z,6.23
2022-12-31T16:12:51.498Z,3.20
2022-12-31T16:16:04.315Z,6.13
2022-12-31T16:19:34.065Z,6.53
2022-12-31T16:22:42.423Z,1.63
2022-12-31T16:25:52.140Z,2.70
2022-12-31T16:29:04.369Z,3.87
2022-12-31T16:32:17.166Z,3.67
2022-12-31T16:35:27.338Z,5.40
2022-12-31T16:38:37.869Z,3.20
2022-12-31T16:41:46.257Z,5.90
2022-12-31T16:44:57.609Z,2.30
2022-12-31T16:48:16.786Z,2.67
2022-12-31T16:51:30.124Z,1.90
2022-12-31T16:54:41.515Z,4.27
2022-12-31T16:57:54.154Z,5.10
2022-12-31T17:01:13.662Z,4.03
2022-12-31T17:04:23.926Z,2.97
2022-12-31T17:07:43.549Z,5.33
2022-12-31T17:10:52.354Z,3.47
2022-12-31T17:14:12.819Z,2.63
2022-12-31T17:17:24.849Z,2.83
2022-12-31T17:20:35.122Z,5.87
2022-12-31T17:23:50.172Z,5.30
2022-12-31T17:27:05.844Z,2.13
2022-12-31T17:30:37.537Z,2.97
2022-12-31T17:34:05.860Z,6.60
2022-12-31T17:37:19.703Z,4.50
2022-12-31T17:40:50.759Z,6.03
2022-12-31T17:43:59.881Z,3.53
2022-12-31T17:47:11.742Z,8.93
2022-12-31T17:50:24.136Z,4.13
2022-12-31T17:53:32.514Z,5.40
2022-12-31T17:56:41.055Z,5.43
2022-12-31T17:59:49.563Z,6.30
2022-12-31T18:02:57.985Z,7.53
2022-12-31T18:06:16.261Z,2.50
2022-12-31T18:09:24.856Z,4.73
2022-12-31T18:12:35.745Z,3.93
2022-12-31T18:15:45.388Z,4.43
2022-12-31T18:19:01.277Z,3.40
2022-12-31T18:22:15.757Z,7.17
2022-12-31T18:25:25.742Z,3.43
2022-12-31T18:28:34.194Z,6.20
2022-12-31T18:31:45.239Z,3.63
2022-12-31T18:34:54.042Z,5.27
2022-12-31T18:38:03.747Z,5.23
2022-12-31T18:41:18.194Z,4.87
2022-12-31T18:44:26.530Z,5.90
2022-12-31T18:47:37.839Z,7.73
2022-12-31T18:50:46.951Z,4.50
2022-12-31T18:53:56.716Z,3.40
2022-12-31T18:57:05.133Z,5.53
2022-12-31T19:00:14.612Z,5.87
2022-12-31T19:03:27.325Z,4.50
2022-12-31T19:06:35.823Z,5.60
2022-12-31T19:09:46.686Z,6.30
2022-12-31T19:12:55.657Z,4.67
2022-12-31T19:16:04.186Z,3.77
2022-12-31T19:19:12.675Z,4.97
2022-12-31T19:22:21.061Z,6.40
2022-12-31T19:25:34.739Z,4.30
2022-12-31T19:28:43.179Z,2.30
2022-12-31T19:31:51.849Z,8.00
2022-12-31T19:35:00.365Z,3.70
2022-12-31T19:38:17.742Z,4.17
2022-12-31T19:41:27.536Z,3.87
2022-12-31T19:44:35.928Z,4.13
2022-12-31T19:47:45.041Z,2.37
2022-12-31T19:50:54.863Z,3.00
2022-12-31T19:54:03.241Z,6.20
2022-12-31T19:57:13.061Z,2.53
2022-12-31T20:00:22.426Z,3.43
2022-12-31T20:03:31.645Z,1.73
2022-12-31T20:06:40.114Z,2.60
2022-12-31T20:09:48.537Z,3.47
2022-12-31T20:12:58.646Z,2.83
2022-12-31T20:16:09.155Z,3.83
2022-12-31T20:19:17.915Z,2.67
2022-12-31T20:22:26.298Z,2.07
2022-12-31T20:25:34.655Z,3.77
2022-12-31T20:28:44.551Z,2.77
2022-12-31T20:31:52.908Z,6.27
2022-12-31T20:35:01.295Z,5.37
2022-12-31T20:38:09.864Z,5.37
2022-12-31T20:41:20.174Z,4.23
2022-12-31T20:44:29.918Z,3.60
2022-12-31T20:47:39.125Z,1.50
2022-12-31T20:50:55.749Z,3.47
2022-12-31T20:54:05.781Z,7.90
2022-12-31T20:57:14.191Z,7.40
2022-12-31T21:00:24.305Z,5.23
2022-12-31T21:07:01.332Z,4.20
2022-12-31T21:10:10.513Z,2.93
2022-12-31T21:13:22.931Z,2.93
2022-12-31T21:16:32.745Z,2.83
2022-12-31T21:19:41.158Z,6.23
2022-12-31T21:22:49.495Z,1.80
2022-12-31T21:25:58.191Z,5.80
2022-12-31T21:29:06.583Z,3.33
2022-12-31T21:32:16.351Z,2.43
2022-12-31T21:35:43.334Z,4.27
2022-12-31T21:38:53.085Z,4.07
2022-12-31T21:42:01.478Z,7.03
2022-12-31T21:45:11.344Z,3.17
2022-12-31T21:48:21.532Z,4.03
2022-12-31T21:51:30.466Z,5.03
2022-12-31T21:54:56.509Z,3.50
2022-12-31T22:01:50.804Z,2.43
2022-12-31T22:05:02.309Z,1.13
2022-12-31T22:08:11.563Z,4.40
2022-12-31T22:11:22.163Z,3.33
2022-12-31T22:14:30.512Z,3.23
2022-12-31T22:17:38.971Z,3.53
2022-12-31T22:20:48.784Z,3.37
2022-12-31T22:23:59.518Z,4.27
2022-12-31T22:27:28.323Z,3.73
2022-12-31T22:30:36.417Z,2.17
2022-12-31T22:33:45.535Z,3.43
2022-12-31T22:36:55.333Z,3.97
2022-12-31T22:40:03.819Z,2.50
2022-12-31T22:43:12.368Z,2.10
2022-12-31T22:46:22.428Z,4.67
2022-12-31T22:49:30.795Z,6.30
2022-12-31T22:52:40.778Z,3.73
2022-12-31T22:55:49.123Z,4.07
2022-12-31T22:58:57.448Z,3.80
2022-12-31T23:02:05.835Z,4.80
2022-12-31T23:05:15.189Z,4.23
2022-12-31T23:08:26.242Z,3.40
2022-12-31T23:11:35.632Z,2.00
2022-12-31T23:15:01.891Z,2.77
2022-12-31T23:18:27.699Z,5.53
2022-12-31T23:21:53.764Z,7.07
2022-12-31T23:25:03.560Z,4.87
2022-12-31T23:28:14.283Z,5.23
2022-12-31T23:31:22.803Z,10.60
2022-12-31T23:34:31.179Z,9.87
2022-12-31T23:37:39.544Z,6.53
2022-12-31T23:40:49.338Z,15.17
2022-12-31T23:43:57.674Z,5.43
2022-12-31T23:47:06.180Z,6.97
2022-12-31T23:50:14.660Z,7.67
2022-12-31T23:53:23.543Z,5.87
2022-12-31T23:56:33.381Z,7.50
2022-12-31T23:59:41.775Z,8.33
